createdAt,value
2023-01-07T00:02:28.014Z,2.23
2023-01-07T00:04:56.548Z,2.20
2023-01-07T00:07:24.883Z,2.27
2023-01-07T00:09:53.162Z,1.90
2023-01-07T00:12:21.456Z,1.90
2023-01-07T00:14:49.748Z,2.07
2023-01-07T00:17:17.959Z,2.10
2023-01-07T00:19:47.595Z,2.23
2023-01-07T00:22:15.816Z,2.23
2023-01-07T00:24:44.104Z,2.30
2023-01-07T00:27:12.360Z,2.17
2023-01-07T00:29:40.590Z,2.37
2023-01-07T00:32:10.303Z,2.63
2023-01-07T00:35:21.416Z,2.80
2023-01-07T00:37:53.043Z,2.30
2023-01-07T00:40:21.779Z,2.10
2023-01-07T00:43:01.309Z,2.00
2023-01-07T00:45:31.962Z,2.57
2023-01-07T00:48:00.864Z,2.20
2023-01-07T00:50:33.695Z,2.77
2023-01-07T00:53:02.824Z,2.20
2023-01-07T00:55:31.754Z,2.37
2023-01-07T00:58:00.876Z,2.30
2023-01-07T01:00:29.172Z,2.37
2023-01-07T01:02:57.794Z,2.20
2023-01-07T01:05:27.126Z,2.47
2023-01-07T01:07:57.140Z,2.37
2023-01-07T01:10:25.546Z,2.23
2023-01-07T01:12:53.947Z,2.47
2023-01-07T01:15:22.724Z,2.30
2023-01-07T01:17:52.322Z,2.20
2023-01-07T01:20:21.088Z,2.33
2023-01-07T01:22:49.445Z,2.00
2023-01-07T01:25:19.283Z,2.23
2023-01-07T01:27:47.719Z,2.10
2023-01-07T01:30:16.030Z,2.17
2023-01-07T01:32:45.541Z,2.10
2023-01-07T01:35:14.255Z,1.80
2023-01-07T01:37:42.651Z,2.07
2023-01-07T01:40:12.557Z,2.07
2023-01-07T01:42:42.371Z,2.27
2023-01-07T01:45:14.881Z,2.20
2023-01-07T01:47:47.952Z,2.27
2023-01-07T01:50:22.523Z,1.70
2023-01-07T01:52:56.187Z,2.30
2023-01-07T01:55:28.776Z,2.13
2023-01-07T01:58:03.679Z,2.30
2023-01-07T02:00:33.656Z,2.17
2023-01-07T02:03:03.443Z,2.30
2023-01-07T02:05:35.199Z,2.03
2023-01-07T02:08:03.617Z,2.20
2023-01-07T02:10:33.330Z,2.10
2023-01-07T02:13:23.238Z,2.30
2023-01-07T02:15:58.103Z,2.03
2023-01-07T02:18:54.253Z,2.50
2023-01-07T02:21:35.444Z,2.47
2023-01-07T02:24:25.537Z,2.30
2023-01-07T02:27:25.892Z,2.27
2023-01-07T02:30:20.262Z,2.70
2023-01-07T02:33:19.608Z,2.60
2023-01-07T02:36:12.010Z,2.23
2023-01-07T02:38:54.470Z,2.37
2023-01-07T02:41:31.170Z,2.50
2023-01-07T02:44:07.240Z,2.80
2023-01-07T02:46:43.523Z,2.70
2023-01-07T02:49:16.991Z,2.70
2023-01-07T02:51:46.556Z,3.00
2023-01-07T02:54:18.756Z,3.00
2023-01-07T02:57:18.278Z,2.93
2023-01-07T03:00:08.617Z,2.70
2023-01-07T03:02:52.018Z,3.00
2023-01-07T03:05:46.242Z,3.00
2023-01-07T03:08:34.950Z,2.90
2023-01-07T03:11:05.638Z,2.87
2023-01-07T03:13:38.780Z,2.97
2023-01-07T03:16:11.100Z,2.97
2023-01-07T03:18:43.894Z,3.10
2023-01-07T03:21:16.861Z,3.23
2023-01-07T03:23:50.235Z,2.90
2023-01-07T03:26:23.309Z,3.37
2023-01-07T03:28:53.123Z,3.20
2023-01-07T03:31:23.595Z,3.30
2023-01-07T03:33:55.832Z,3.20
2023-01-07T03:36:31.248Z,3.27
2023-01-07T03:39:02.389Z,3.70
2023-01-07T03:41:49.185Z,3.60
2023-01-07T03:44:17.492Z,3.40
2023-01-07T03:46:45.780Z,3.40
2023-01-07T03:49:14.453Z,3.00
2023-01-07T03:51:46.048Z,3.57
2023-01-07T03:54:14.831Z,3.40
2023-01-07T03:56:43.157Z,3.43
2023-01-07T03:59:11.584Z,3.30
2023-01-07T04:01:39.965Z,3.63
2023-01-07T04:04:08.685Z,2.93
2023-01-07T04:06:58.563Z,3.10
2023-01-07T04:09:28.193Z,3.27
2023-01-07T04:11:56.931Z,3.20
2023-01-07T04:14:25.336Z,3.00
2023-01-07T04:16:53.740Z,3.47
2023-01-07T04:19:22.728Z,3.20
2023-01-07T04:21:51.107Z,3.17
2023-01-07T04:24:20.806Z,3.10
2023-01-07T04:26:49.214Z,3.33
2023-01-07T04:29:19.502Z,3.00
2023-01-07T04:31:50.104Z,3.30
2023-01-07T04:34:18.802Z,3.10
2023-01-07T04:36:47.230Z,3.30
2023-01-07T04:39:16.547Z,3.30
2023-01-07T04:41:46.723Z,3.33
2023-01-07T04:44:17.566Z,2.97
2023-01-07T04:46:46.141Z,3.00
2023-01-07T04:49:14.428Z,2.87
2023-01-07T04:51:42.758Z,3.10
2023-01-07T04:54:11.233Z,2.97
2023-01-07T04:56:40.140Z,3.60
2023-01-07T04:59:10.314Z,3.13
2023-01-07T05:01:39.441Z,3.00
2023-01-07T05:04:09.588Z,2.97
2023-01-07T05:06:38.418Z,3.10
2023-01-07T05:09:08.231Z,2.77
2023-01-07T05:11:36.695Z,3.40
2023-01-07T05:14:05.848Z,3.10
2023-01-07T05:16:36.584Z,3.10
2023-01-07T05:19:10.534Z,2.97
2023-01-07T05:21:42.906Z,3.00
2023-01-07T05:24:12.427Z,3.10
2023-01-07T05:26:56.998Z,2.97
2023-01-07T05:29:25.387Z,3.10
2023-01-07T05:31:55.016Z,3.30
2023-01-07T05:34:24.020Z,3.30
2023-01-07T05:36:52.641Z,3.50
2023-01-07T05:39:21.217Z,2.93
2023-01-07T05:41:49.726Z,2.97
2023-01-07T05:44:18.734Z,3.03
2023-01-07T05:46:47.009Z,3.33
2023-01-07T05:49:16.653Z,3.43
2023-01-07T05:51:44.961Z,3.43
2023-01-07T05:54:13.348Z,3.30
2023-01-07T05:56:41.784Z,3.50
2023-01-07T05:59:10.067Z,3.00
2023-01-07T06:01:38.352Z,3.37
2023-01-07T06:04:07.631Z,3.17
2023-01-07T06:06:37.374Z,3.60
2023-01-07T06:09:05.871Z,3.40
2023-01-07T06:11:34.227Z,3.20
2023-01-07T06:14:02.629Z,3.20
2023-01-07T06:16:30.905Z,3.60
2023-01-07T06:18:59.174Z,3.60
2023-01-07T06:21:27.576Z,3.13
2023-01-07T06:23:57.440Z,3.67
2023-01-07T06:26:25.703Z,3.73
2023-01-07T06:28:53.963Z,3.97
2023-01-07T06:31:22.391Z,3.87
2023-01-07T06:33:50.760Z,3.43
2023-01-07T06:36:19.055Z,4.07
2023-01-07T06:38:47.249Z,3.80
2023-01-07T06:41:17.667Z,4.10
2023-01-07T06:43:45.912Z,3.90
2023-01-07T06:46:14.354Z,4.10
2023-01-07T06:48:42.699Z,4.30
2023-01-07T06:51:11.023Z,4.20
2023-01-07T06:53:39.319Z,4.30
2023-01-07T06:56:07.949Z,4.50
2023-01-07T06:58:37.679Z,4.60
2023-01-07T07:01:07.251Z,4.33
2023-01-07T07:03:35.598Z,4.10
2023-01-07T07:06:03.877Z,4.57
2023-01-07T07:08:32.200Z,4.90
2023-01-07T07:11:00.593Z,4.33
2023-01-07T07:13:28.967Z,4.77
2023-01-07T07:15:58.786Z,4.50
2023-01-07T07:18:27.673Z,4.80
2023-01-07T07:20:55.979Z,4.97
2023-01-07T07:23:24.353Z,5.20
2023-01-07T07:25:52.631Z,4.80
2023-01-07T07:28:20.994Z,4.70
2023-01-07T07:30:49.258Z,5.30
2023-01-07T07:33:19.980Z,4.90
2023-01-07T07:35:48.727Z,5.47
2023-01-07T07:38:17.989Z,5.47
2023-01-07T07:40:46.550Z,5.30
2023-01-07T07:43:15.285Z,5.73
2023-01-07T07:45:43.784Z,5.57
2023-01-07T07:48:14.761Z,5.97
2023-01-07T07:50:44.533Z,6.17
2023-01-07T07:53:14.207Z,5.77
2023-01-07T07:55:43.355Z,5.90
2023-01-07T07:58:11.697Z,5.77
2023-01-07T08:00:39.964Z,6.10
2023-01-07T08:03:08.907Z,6.00
2023-01-07T08:05:37.418Z,6.23
2023-01-07T08:08:08.484Z,5.73
2023-01-07T08:10:36.982Z,6.10
2023-01-07T08:13:06.063Z,6.10
2023-01-07T08:15:34.546Z,5.87
2023-01-07T08:18:05.322Z,6.10
2023-01-07T08:20:34.893Z,6.50
2023-01-07T08:23:04.677Z,6.20
2023-01-07T08:25:35.795Z,5.80
2023-01-07T08:28:04.869Z,5.90
2023-01-07T08:30:33.190Z,6.07
2023-01-07T08:33:01.877Z,6.10
2023-01-07T08:35:30.190Z,5.83
2023-01-07T08:38:03.608Z,6.20
2023-01-07T08:40:32.167Z,6.40
2023-01-07T08:43:03.001Z,5.73
2023-01-07T08:45:32.264Z,5.73
2023-01-07T08:48:00.846Z,5.93
2023-01-07T08:50:30.184Z,5.83
2023-01-07T08:57:01.105Z,5.53
2023-01-07T08:59:30.790Z,5.10
2023-01-07T09:01:59.178Z,5.60
2023-01-07T09:04:27.549Z,5.43
2023-01-07T09:06:55.823Z,5.27
2023-01-07T09:09:24.129Z,4.97
2023-01-07T09:11:52.465Z,4.87
2023-01-07T09:14:20.776Z,4.70
2023-01-07T09:16:50.534Z,4.50
2023-01-07T09:19:19.700Z,4.13
2023-01-07T09:21:48.000Z,4.40
2023-01-07T09:24:16.260Z,3.67
2023-01-07T09:26:44.681Z,3.80
2023-01-07T09:29:13.189Z,3.67
2023-01-07T09:31:41.506Z,3.63
2023-01-07T09:34:11.129Z,3.90
2023-01-07T09:36:39.470Z,3.90
2023-01-07T09:39:07.801Z,3.70
2023-01-07T09:41:56.499Z,3.40
2023-01-07T09:44:44.656Z,3.60
2023-01-07T09:47:15.848Z,3.37
2023-01-07T09:49:47.624Z,3.70
2023-01-07T09:52:20.469Z,3.93
2023-01-07T09:54:53.305Z,3.63
2023-01-07T09:57:21.694Z,3.63
2023-01-07T09:59:49.968Z,3.63
2023-01-07T10:02:39.221Z,3.70
2023-01-07T10:05:27.231Z,3.60
2023-01-07T10:08:29.870Z,3.80
2023-01-07T10:10:59.759Z,3.47
2023-01-07T10:13:58.835Z,3.87
2023-01-07T10:16:37.971Z,3.70
2023-01-07T10:19:16.167Z,3.47
2023-01-07T10:21:53.513Z,3.50
2023-01-07T10:24:27.497Z,3.83
2023-01-07T10:27:00.561Z,3.60
2023-01-07T10:29:33.567Z,3.40
2023-01-07T10:32:08.432Z,3.30
2023-01-07T10:34:43.889Z,3.43
2023-01-07T10:37:28.945Z,3.63
2023-01-07T10:40:08.480Z,3.60
2023-01-07T10:42:41.833Z,3.57
2023-01-07T10:45:41.338Z,3.40
2023-01-07T10:48:26.696Z,4.00
2023-01-07T10:51:07.749Z,3.60
2023-01-07T10:53:51.138Z,3.70
2023-01-07T10:56:26.974Z,3.50
2023-01-07T10:58:55.321Z,3.53
2023-01-07T11:01:27.947Z,3.57
2023-01-07T11:03:57.634Z,4.07
2023-01-07T11:06:39.486Z,3.80
2023-01-07T11:09:13.490Z,3.80
2023-01-07T11:11:43.302Z,3.60
2023-01-07T11:14:16.627Z,4.03
2023-01-07T11:16:49.180Z,4.00
2023-01-07T11:19:17.922Z,4.23
2023-01-07T11:21:48.630Z,4.30
2023-01-07T11:24:41.328Z,4.03
2023-01-07T11:27:16.788Z,4.33
2023-01-07T11:29:47.352Z,4.17
2023-01-07T11:32:22.722Z,4.50
2023-01-07T11:34:57.001Z,4.50
2023-01-07T11:37:38.429Z,4.40
2023-01-07T11:40:21.812Z,4.37
2023-01-07T11:42:52.564Z,3.90
2023-01-07T11:45:22.886Z,4.00
2023-01-07T11:47:59.104Z,3.50
2023-01-07T11:50:30.829Z,3.83
2023-01-07T11:53:37.868Z,3.73
2023-01-07T11:56:09.528Z,3.77
2023-01-07T11:58:39.971Z,4.07
2023-01-07T12:01:17.573Z,3.83
2023-01-07T12:06:47.148Z,3.40
2023-01-07T12:09:24.722Z,4.20
2023-01-07T12:12:37.005Z,3.60
2023-01-07T12:15:16.692Z,3.30
2023-01-07T12:17:47.871Z,3.10
2023-01-07T12:20:49.890Z,3.50
2023-01-07T12:23:30.711Z,3.47
2023-01-07T12:26:05.089Z,3.57
2023-01-07T12:28:57.472Z,3.70
2023-01-07T12:31:35.608Z,3.83
2023-01-07T12:34:14.422Z,3.50
2023-01-07T12:37:37.114Z,3.53
2023-01-07T12:40:22.862Z,3.70
2023-01-07T12:42:56.107Z,4.00
2023-01-07T12:45:29.366Z,4.03
2023-01-07T12:48:02.537Z,3.30
2023-01-07T12:50:38.533Z,3.83
2023-01-07T12:53:15.257Z,3.77
2023-01-07T12:55:48.964Z,3.87
2023-01-07T12:58:21.107Z,4.07
2023-01-07T13:00:58.365Z,4.00
2023-01-07T13:03:44.351Z,3.97
2023-01-07T13:06:19.746Z,3.97
2023-01-07T13:08:55.758Z,3.70
2023-01-07T13:11:44.678Z,3.70
2023-01-07T13:18:22.362Z,3.20
2023-01-07T13:21:05.260Z,3.60
2023-01-07T13:23:57.119Z,2.93
2023-01-07T13:26:34.831Z,2.40
2023-01-07T13:29:22.747Z,1.97
2023-01-07T13:32:13.733Z,2.23
2023-01-07T13:34:56.020Z,2.37
2023-01-07T13:37:43.599Z,2.27
2023-01-07T13:40:41.501Z,2.00
2023-01-07T13:43:22.448Z,2.00
2023-01-07T13:45:58.189Z,2.17
2023-01-07T13:48:28.845Z,2.40
2023-01-07T13:51:00.871Z,2.73
2023-01-07T13:53:46.926Z,2.80
2023-01-07T13:56:34.052Z,3.20
2023-01-07T13:59:02.521Z,3.23
2023-01-07T14:01:33.672Z,3.40
2023-01-07T14:04:35.873Z,3.50
2023-01-07T14:07:05.592Z,3.43
2023-01-07T14:09:39.186Z,3.20
2023-01-07T14:12:45.016Z,3.17
2023-01-07T14:15:56.699Z,3.23
2023-01-07T14:19:04.169Z,3.40
2023-01-07T14:21:55.959Z,3.13
2023-01-07T14:24:58.814Z,3.60
2023-01-07T14:27:58.224Z,3.50
2023-01-07T14:30:30.894Z,2.80
2023-01-07T14:33:01.186Z,3.30
2023-01-07T14:35:42.516Z,3.20
2023-01-07T14:38:46.673Z,2.83
2023-01-07T14:41:17.370Z,2.97
2023-01-07T14:44:05.492Z,3.10
2023-01-07T14:46:48.730Z,3.13
2023-01-07T14:49:51.283Z,3.17
2023-01-07T14:52:35.897Z,3.30
2023-01-07T14:55:30.830Z,2.73
2023-01-07T14:58:23.636Z,3.23
2023-01-07T15:01:36.850Z,3.80
2023-01-07T15:04:37.588Z,2.93
2023-01-07T15:07:13.864Z,3.60
2023-01-07T15:10:03.917Z,3.60
2023-01-07T15:12:52.421Z,3.43
2023-01-07T15:15:43.147Z,3.40
2023-01-07T15:18:12.773Z,4.20
2023-01-07T15:20:53.332Z,3.93
2023-01-07T15:23:29.732Z,3.77
2023-01-07T15:26:06.010Z,4.10
2023-01-07T15:28:44.116Z,3.93
2023-01-07T15:31:21.608Z,3.93
2023-01-07T15:34:02.417Z,3.87
2023-01-07T15:36:31.960Z,4.17
2023-01-07T15:39:03.438Z,4.03
2023-01-07T15:41:34.577Z,3.90
2023-01-07T15:44:04.499Z,4.20
2023-01-07T15:46:34.665Z,4.00
2023-01-07T15:49:20.639Z,4.33
2023-01-07T15:51:50.876Z,4.67
2023-01-07T15:54:32.429Z,4.57
2023-01-07T15:57:07.642Z,4.80
2023-01-07T15:59:39.107Z,4.13
2023-01-07T16:02:20.220Z,4.43
2023-01-07T16:04:51.708Z,4.10
2023-01-07T16:07:24.313Z,3.80
2023-01-07T16:09:54.309Z,4.10
2023-01-07T16:12:32.917Z,3.93
2023-01-07T16:15:04.867Z,4.23
2023-01-07T16:17:35.939Z,4.93
2023-01-07T16:20:11.529Z,4.83
2023-01-07T16:22:41.512Z,3.80
2023-01-07T16:25:17.572Z,3.57
2023-01-07T16:27:46.795Z,2.93
2023-01-07T16:30:16.563Z,3.50
2023-01-07T16:32:47.351Z,2.90
2023-01-07T16:35:20.493Z,3.33
2023-01-07T16:37:50.194Z,3.30
2023-01-07T16:40:27.191Z,3.10
2023-01-07T16:42:55.622Z,3.40
2023-01-07T16:45:30.046Z,3.30
2023-01-07T16:48:18.606Z,3.63
2023-01-07T17:18:30.160Z,3.70
2023-01-07T17:20:59.602Z,4.10
2023-01-07T17:23:41.567Z,5.20
2023-01-07T17:26:19.391Z,4.23
2023-01-07T17:28:51.884Z,5.73
2023-01-07T17:31:21.102Z,4.70
2023-01-07T17:33:51.182Z,5.23
2023-01-07T17:36:21.778Z,7.07
2023-01-07T17:38:50.220Z,16.80
2023-01-07T17:41:37.450Z,18.40
2023-01-07T17:44:07.118Z,9.33
2023-01-07T17:46:35.388Z,9.20
2023-01-07T17:49:05.075Z,9.80
2023-01-07T17:51:37.700Z,6.27
2023-01-07T17:54:07.004Z,7.87
2023-01-07T17:56:35.416Z,10.77
2023-01-07T17:59:03.919Z,8.23
2023-01-07T18:01:32.645Z,9.03
2023-01-07T18:04:00.995Z,16.27
2023-01-07T18:06:34.846Z,18.43
2023-01-07T18:09:04.858Z,10.67
2023-01-07T18:11:54.530Z,9.60
2023-01-07T18:14:22.852Z,10.83
2023-01-07T18:16:52.410Z,9.10
2023-01-07T18:19:21.284Z,10.60
2023-01-07T18:21:50.996Z,8.20
2023-01-07T18:24:20.976Z,12.93
2023-01-07T18:26:49.497Z,8.30
2023-01-07T18:29:17.825Z,7.80
2023-01-07T18:31:46.267Z,8.57
2023-01-07T18:34:16.228Z,6.57
2023-01-07T18:36:44.676Z,5.60
2023-01-07T18:39:19.898Z,5.70
2023-01-07T18:41:50.217Z,6.60
2023-01-07T18:44:18.772Z,5.03
2023-01-07T18:46:47.119Z,4.83
2023-01-07T18:49:15.876Z,5.17
2023-01-07T18:51:46.260Z,5.47
2023-01-07T18:54:16.485Z,7.97
2023-01-07T18:56:46.190Z,6.83
2023-01-07T18:59:14.538Z,7.30
2023-01-07T19:01:43.174Z,6.73
2023-01-07T19:04:11.742Z,5.50
2023-01-07T19:06:40.190Z,4.33
2023-01-07T19:09:08.565Z,4.47
2023-01-07T19:11:38.620Z,3.97
2023-01-07T19:14:07.010Z,3.53
2023-01-07T19:16:36.701Z,3.53
2023-01-07T19:19:06.669Z,3.47
2023-01-07T19:21:35.658Z,3.20
2023-01-07T19:24:04.613Z,3.70
2023-01-07T19:26:33.773Z,2.90
2023-01-07T19:29:04.738Z,3.50
2023-01-07T19:31:33.155Z,3.73
2023-01-07T19:34:02.822Z,3.27
2023-01-07T19:36:31.378Z,3.90
2023-01-07T19:38:59.625Z,3.23
2023-01-07T19:41:28.346Z,3.17
2023-01-07T19:43:59.666Z,3.00
2023-01-07T19:46:29.385Z,3.80
2023-01-07T19:48:58.932Z,3.17
2023-01-07T19:51:27.368Z,2.93
2023-01-07T19:53:55.574Z,2.73
2023-01-07T19:56:23.921Z,3.60
2023-01-07T19:58:54.347Z,2.87
2023-01-07T20:01:24.491Z,2.53
2023-01-07T20:03:54.877Z,2.60
2023-01-07T20:06:24.770Z,2.90
2023-01-07T20:08:54.342Z,2.20
2023-01-07T20:11:23.032Z,2.47
2023-01-07T20:13:51.832Z,2.57
2023-01-07T20:16:22.145Z,2.50
2023-01-07T20:18:53.591Z,2.00
2023-01-07T20:21:23.774Z,2.00
2023-01-07T20:23:52.584Z,2.13
2023-01-07T20:26:23.032Z,2.20
2023-01-07T20:28:51.828Z,2.47
2023-01-07T20:31:21.975Z,1.90
2023-01-07T20:33:50.944Z,2.10
2023-01-07T20:36:22.227Z,2.10
2023-01-07T20:38:51.309Z,2.23
2023-01-07T20:41:21.305Z,1.93
2023-01-07T20:43:52.877Z,5.10
2023-01-07T20:46:21.601Z,5.97
2023-01-07T20:48:50.060Z,2.83
2023-01-07T20:51:20.071Z,3.33
2023-01-07T20:53:48.824Z,2.90
2023-01-07T20:56:18.787Z,2.73
2023-01-07T20:58:47.808Z,2.97
2023-01-07T21:01:18.860Z,3.60
2023-01-07T21:03:47.381Z,4.50
2023-01-07T21:06:18.001Z,3.50
2023-01-07T21:08:48.807Z,3.47
2023-01-07T21:11:23.543Z,3.57
2023-01-07T21:13:55.959Z,3.10
2023-01-07T21:16:29.573Z,3.40
2023-01-07T21:18:58.006Z,3.20
2023-01-07T21:21:26.388Z,3.10
2023-01-07T21:24:11.402Z,2.80
2023-01-07T21:26:39.760Z,2.63
2023-01-07T21:29:08.048Z,2.47
2023-01-07T21:31:36.559Z,2.70
2023-01-07T21:34:05.001Z,3.53
2023-01-07T21:36:34.839Z,2.83
2023-01-07T21:39:04.198Z,2.23
2023-01-07T21:41:33.816Z,2.60
2023-01-07T21:44:02.113Z,3.30
2023-01-07T21:46:30.397Z,4.07
2023-01-07T21:48:58.982Z,3.33
2023-01-07T21:51:28.357Z,2.57
2023-01-07T21:53:58.563Z,2.20
2023-01-07T21:56:31.347Z,2.77
2023-01-07T21:59:01.687Z,2.20
2023-01-07T22:01:30.331Z,2.80
2023-01-07T22:03:59.920Z,2.70
2023-01-07T22:06:29.882Z,3.07
2023-01-07T22:09:00.114Z,2.53
2023-01-07T22:11:48.699Z,2.37
2023-01-07T22:14:20.076Z,2.40
2023-01-07T22:16:49.320Z,2.60
2023-01-07T22:19:17.665Z,3.17
2023-01-07T22:21:45.947Z,2.87
2023-01-07T22:24:14.402Z,2.77
2023-01-07T22:26:42.984Z,2.70
2023-01-07T22:29:11.906Z,2.50
2023-01-07T22:31:41.943Z,2.90
2023-01-07T22:34:10.567Z,2.67
2023-01-07T22:36:47.545Z,2.60
2023-01-07T22:39:19.244Z,2.50
2023-01-07T22:41:48.479Z,3.00
2023-01-07T22:44:20.722Z,3.17
2023-01-07T22:46:51.738Z,2.80
2023-01-07T22:49:22.325Z,2.73
2023-01-07T22:51:50.687Z,3.70
2023-01-07T22:54:19.593Z,3.00
2023-01-07T22:56:48.452Z,3.37
2023-01-07T22:59:16.736Z,3.07
2023-01-07T23:01:45.189Z,2.80
2023-01-07T23:04:14.903Z,3.80
2023-01-07T23:06:43.291Z,4.70
2023-01-07T23:09:11.617Z,5.00
2023-01-07T23:11:51.933Z,8.60
2023-01-07T23:14:22.809Z,10.30
2023-01-07T23:16:52.537Z,7.67
2023-01-07T23:19:23.102Z,8.67
2023-01-07T23:21:53.547Z,13.30
2023-01-07T23:24:22.584Z,9.80
2023-01-07T23:26:53.425Z,6.53
2023-01-07T23:29:22.151Z,4.20
2023-01-07T23:31:50.716Z,3.33
2023-01-07T23:34:19.537Z,4.87
2023-01-07T23:36:49.238Z,7.53
2023-01-07T23:39:17.563Z,15.40
2023-01-07T23:41:45.817Z,12.33
2023-01-07T23:44:14.243Z,4.77
2023-01-07T23:46:42.506Z,3.53
2023-01-07T23:49:10.820Z,4.00
2023-01-07T23:51:40.769Z,3.37
2023-01-07T23:54:11.141Z,3.43
2023-01-07T23:56:39.465Z,3.50
2023-01-07T23:59:07.746Z,3.67
